Time;durP1;ratioP1;P1;durP2;ratioP2;P2;SDS_P1;SDS_P2;PMS_P1;PMS_P2;Temp;Humidity;BMP_temperature;BMP_pressure;BME280_temperature;BME280_humidity;BME280_pressure;Samples;Min_cycle;Max_cycle;Signal;HPM_P1;HPM_P2
2023/03/13 00:00:18;;;;;;;5.15;1.60;;;;;;;-0.39;71.91;100375.33;1745910;82;21079;-60
2023/03/13 00:02:49;;;;;;;4.47;1.37;;;;;;;-0.41;71.85;100384.88;1745873;81;21459;-60
2023/03/13 00:05:18;;;;;;;3.83;1.60;;;;;;;-0.42;71.98;100379.13;1745964;82;21451;-59
2023/03/13 00:07:50;;;;;;;3.72;1.20;;;;;;;-0.46;71.74;100383.06;1745799;82;21006;-61
2023/03/13 00:10:20;;;;;;;4.30;1.25;;;;;;;-0.45;71.89;100382.08;1746069;82;21031;-60
2023/03/13 00:12:50;;;;;;;5.17;1.62;;;;;;;-0.44;71.85;100386.97;1745803;82;21467;-59
2023/03/13 00:15:20;;;;;;;4.08;1.90;;;;;;;-0.44;71.95;100389.17;1745842;82;21015;-60
2023/03/13 00:17:50;;;;;;;5.17;1.98;;;;;;;-0.45;71.90;100383.42;1745830;82;21019;-60
2023/03/13 00:20:20;;;;;;;6.55;1.77;;;;;;;-0.46;71.97;100383.06;1745748;82;21449;-60
2023/03/13 00:22:51;;;;;;;3.52;1.25;;;;;;;-0.45;72.08;100382.08;1745514;82;21051;-60
2023/03/13 00:25:21;;;;;;;4.33;1.32;;;;;;;-0.44;71.98;100387.83;1745822;82;21098;-59
2023/03/13 00:27:52;;;;;;;5.45;1.47;;;;;;;-0.46;71.92;100387.09;1745833;82;21451;-60
2023/03/13 00:30:22;;;;;;;7.50;2.00;;;;;;;-0.47;71.99;100394.80;1746021;82;21082;-59
2023/03/13 00:32:53;;;;;;;4.42;1.70;;;;;;;-0.50;72.08;100397.75;1745702;82;21463;-60
2023/03/13 00:35:23;;;;;;;3.72;1.55;;;;;;;-0.51;72.16;100399.22;1745754;82;21038;-60
2023/03/13 00:37:55;;;;;;;5.53;1.87;;;;;;;-0.50;72.33;100396.90;1746055;82;21022;-61
2023/03/13 00:40:25;;;;;;;3.92;1.75;;;;;;;-0.49;72.38;100397.27;1745578;82;21406;-61
2023/03/13 00:42:54;;;;;;;5.67;2.58;;;;;;;-0.49;72.50;100402.64;1745851;82;21035;-61
2023/03/13 00:45:25;;;;;;;3.62;1.90;;;;;;;-0.51;72.39;100404.12;1745720;82;21046;-61
2023/03/13 00:47:54;;;;;;;5.47;2.10;;;;;;;-0.52;72.29;100409.13;1745762;82;21106;-61
2023/03/13 00:50:24;;;;;;;5.35;2.08;;;;;;;-0.52;72.21;100404.24;1736004;82;21487;-60
2023/03/13 00:52:54;;;;;;;3.62;1.57;;;;;;;-0.52;72.21;100405.59;1745902;81;21031;-60
2023/03/13 00:55:24;;;;;;;3.72;1.50;;;;;;;-0.54;72.17;100408.41;1745944;81;21067;-59
2023/03/13 00:57:54;;;;;;;3.47;1.65;;;;;;;-0.53;72.18;100412.80;1745932;82;21070;-60
2023/03/13 01:00:24;;;;;;;4.75;1.60;;;;;;;-0.53;71.97;100409.27;1746033;82;21058;-60
2023/03/13 01:02:54;;;;;;;6.15;2.15;;;;;;;-0.55;71.78;100404.50;1746026;82;21034;-60
2023/03/13 01:05:24;;;;;;;5.12;2.27;;;;;;;-0.57;71.62;100395.70;1745829;82;21031;-60
2023/03/13 01:07:53;;;;;;;3.98;1.40;;;;;;;-0.58;71.71;100395.33;1745873;82;21027;-60
2023/03/13 01:10:24;;;;;;;2.92;1.35;;;;;;;-0.58;71.58;100396.19;1745778;82;21065;-60
2023/03/13 01:12:53;;;;;;;5.35;1.72;;;;;;;-0.59;71.42;100397.17;1745714;81;21067;-60
2023/03/13 01:15:23;;;;;;;3.05;1.40;;;;;;;-0.59;71.10;100389.59;1745823;82;21466;-59
2023/03/13 01:17:52;;;;;;;3.50;1.52;;;;;;;-0.59;70.98;100397.66;1745799;81;20987;-58
2023/03/13 01:20:24;;;;;;;3.17;1.37;;;;;;;-0.59;70.94;100397.17;1745945;81;21058;-60
2023/03/13 01:22:52;;;;;;;3.72;1.30;;;;;;;-0.58;70.85;100396.68;1745728;82;21050;-60
2023/03/13 01:25:24;;;;;;;3.95;2.12;;;;;;;-0.58;70.63;100400.22;1745709;82;21094;-59
2023/03/13 01:27:54;;;;;;;3.10;1.27;;;;;;;-0.61;70.35;100395.09;1745863;82;21050;-60
2023/03/13 01:30:24;;;;;;;4.37;1.40;;;;;;;-0.64;70.28;100395.34;1746539;82;20984;-63
2023/03/13 01:32:54;;;;;;;3.05;1.40;;;;;;;-0.66;70.22;100397.28;1746561;82;21015;-59
2023/03/13 01:35:25;;;;;;;5.78;1.80;;;;;;;-0.64;70.08;100402.08;1746652;82;21007;-60
2023/03/13 01:37:57;;;;;;;4.85;1.50;;;;;;;-0.65;70.03;100408.44;1747220;82;21055;-61
2023/03/13 01:40:26;;;;;;;5.65;1.50;;;;;;;-0.63;69.86;100416.38;1746627;82;21022;-60
2023/03/13 01:42:58;;;;;;;4.78;1.30;;;;;;;-0.62;69.90;100421.64;1746199;81;21043;-59
2023/03/13 01:45:54;;;;;;;3.65;1.67;;;;;;;-0.61;69.70;100422.00;1745868;82;21054;-59
2023/03/13 01:48:50;;;;;;;3.42;1.47;;;;;;;-0.61;69.38;100434.11;1745682;82;21070;-60
2023/03/13 01:51:28;;;;;;;4.58;2.08;;;;;;;-0.65;69.16;100438.89;1746433;82;21062;-60
2023/03/13 01:54:35;;;;;;;5.37;2.25;;;;;;;-0.65;68.98;100441.58;1748939;82;21097;-61
2023/03/13 01:57:22;;;;;;;3.40;1.52;;;;;;;-0.67;68.99;100442.65;1748558;82;21023;-60
2023/03/13 02:00:21;;;;;;;4.87;1.85;;;;;;;-0.67;68.43;100449.38;1748851;82;21391;-61
2023/03/13 02:02:54;;;;;;;3.15;1.80;;;;;;;-0.68;68.45;100454.39;1748360;82;21467;-59
2023/03/13 02:05:26;;;;;;;4.97;2.00;;;;;;;-0.67;68.48;100450.72;1748620;82;21022;-60
2023/03/13 02:08:26;;;;;;;6.72;2.47;;;;;;;-0.65;68.23;100458.21;1748832;82;20991;-59
2023/03/13 02:11:13;;;;;;;5.62;2.27;;;;;;;-0.66;68.11;100460.50;1738403;82;20999;-59
2023/03/13 02:13:43;;;;;;;2.70;1.80;;;;;;;-0.66;68.08;100469.92;1748895;82;21055;-60
2023/03/13 02:16:12;;;;;;;5.20;2.50;;;;;;;-0.67;67.96;100467.72;1748679;81;21023;-60
2023/03/13 02:18:41;;;;;;;4.63;1.90;;;;;;;-0.67;67.90;100466.86;1748575;82;21056;-61
2023/03/13 02:21:21;;;;;;;4.33;2.10;;;;;;;-0.67;67.83;100469.55;1748469;82;21520;-60
2023/03/13 02:24:02;;;;;;;4.17;2.20;;;;;;;-0.66;67.82;100472.13;1748898;82;21055;-59
2023/03/13 02:26:31;;;;;;;5.33;2.10;;;;;;;-0.63;68.05;100475.08;1733086;82;21483;-60
2023/03/13 02:29:02;;;;;;;3.67;1.55;;;;;;;-0.63;68.16;100476.92;1748580;82;21078;-59
2023/03/13 02:31:31;;;;;;;4.75;1.80;;;;;;;-0.66;67.93;100474.81;1748635;82;21438;-59
2023/03/13 02:34:00;;;;;;;4.62;1.87;;;;;;;-0.66;67.77;100478.84;1748886;82;21034;-58
2023/03/13 02:36:30;;;;;;;4.67;2.12;;;;;;;-0.68;67.66;100481.30;1748677;82;21022;-59
2023/03/13 02:39:03;;;;;;;2.67;1.50;;;;;;;-0.70;67.72;100479.22;1748938;82;21034;-62
2023/03/13 02:41:33;;;;;;;2.52;1.52;;;;;;;-0.76;68.04;100486.44;1748832;82;21023;-59
2023/03/13 02:44:05;;;;;;;3.12;1.52;;;;;;;-0.80;68.14;100489.87;1748659;82;21007;-59
2023/03/13 02:46:49;;;;;;;4.67;1.70;;;;;;;-0.87;68.62;100490.48;1748942;82;21065;-59
2023/03/13 02:49:27;;;;;;;3.05;1.42;;;;;;;-0.93;69.02;100494.52;1722151;82;21384;-60
2023/03/13 02:52:00;;;;;;;5.35;2.17;;;;;;;-1.00;69.43;100494.64;1748659;82;21039;-62
2023/03/13 02:54:33;;;;;;;5.37;1.67;;;;;;;-1.04;69.70;100502.09;1747651;82;21071;-61
2023/03/13 02:57:04;;;;;;;4.83;2.25;;;;;;;-1.08;69.89;100495.73;1748855;82;21101;-60
2023/03/13 02:59:33;;;;;;;6.90;1.87;;;;;;;-1.14;70.23;100506.97;1748770;82;21039;-60
2023/03/13 03:02:03;;;;;;;7.65;2.35;;;;;;;-1.18;70.50;100507.70;1748769;82;21455;-60
2023/03/13 03:04:32;;;;;;;6.22;2.40;;;;;;;-1.29;70.74;100507.19;1748743;82;21430;-61
2023/03/13 03:07:01;;;;;;;6.55;2.30;;;;;;;-1.34;71.13;100505.80;1748964;81;21504;-60
2023/03/13 03:09:33;;;;;;;7.95;2.40;;;;;;;-1.38;71.43;100504.33;1749010;82;21023;-60
2023/03/13 03:12:06;;;;;;;8.55;2.40;;;;;;;-1.43;71.60;100504.69;1748779;82;21027;-61
2023/03/13 03:14:37;;;;;;;5.72;1.95;;;;;;;-1.46;71.87;100509.44;1748629;82;20994;-60
2023/03/13 03:17:07;;;;;;;9.73;2.15;;;;;;;-1.49;72.05;100509.67;1748678;82;21025;-60
2023/03/13 03:19:38;;;;;;;5.92;2.22;;;;;;;-1.55;72.26;100513.69;1748583;82;21058;-61
2023/03/13 03:22:07;;;;;;;6.17;2.30;;;;;;;-1.54;72.51;100515.89;1748589;82;21070;-61
2023/03/13 03:24:36;;;;;;;8.30;2.33;;;;;;;-1.52;72.60;100516.14;1748608;82;21003;-63
2023/03/13 03:27:05;;;;;;;5.80;2.33;;;;;;;-1.52;72.78;100520.66;1748840;82;20999;-60
2023/03/13 03:29:36;;;;;;;5.33;2.27;;;;;;;-1.54;73.10;100536.05;1748182;82;21098;-60
2023/03/13 03:32:06;;;;;;;5.03;2.33;;;;;;;-1.58;73.19;100539.45;1748762;82;20995;-60
2023/03/13 03:34:35;;;;;;;7.28;2.77;;;;;;;-1.61;73.40;100543.72;1748732;82;21042;-59
2023/03/13 03:37:08;;;;;;;5.62;2.70;;;;;;;-1.65;73.53;100543.09;1748809;82;21435;-60
2023/03/13 03:39:37;;;;;;;7.35;2.67;;;;;;;-1.67;73.70;100549.06;1748962;82;21090;-60
2023/03/13 03:42:08;;;;;;;5.50;2.60;;;;;;;-1.69;73.87;100552.35;1748752;82;21447;-60
2023/03/13 03:44:38;;;;;;;8.30;2.87;;;;;;;-1.72;73.91;100559.30;1748697;82;21066;-59
2023/03/13 03:47:10;;;;;;;7.20;2.90;;;;;;;-1.79;73.92;100563.42;1748874;82;21058;-60
2023/03/13 03:49:42;;;;;;;8.10;3.33;;;;;;;-1.82;74.08;100568.16;1748837;82;21007;-60
2023/03/13 03:52:12;;;;;;;5.97;2.98;;;;;;;-1.84;74.29;100563.39;1748173;81;21078;-61
2023/03/13 03:54:43;;;;;;;7.42;3.05;;;;;;;-1.80;74.64;100579.65;1745908;82;21424;-60
2023/03/13 03:57:13;;;;;;;7.17;3.02;;;;;;;-1.76;74.72;100587.36;1745932;82;21031;-60
2023/03/13 03:59:46;;;;;;;9.55;3.27;;;;;;;-1.78;74.78;100597.84;1745918;82;21489;-60
2023/03/13 04:02:16;;;;;;;8.20;3.15;;;;;;;-1.81;74.70;100595.39;1745884;82;21042;-61
2023/03/13 04:04:46;;;;;;;9.93;3.35;;;;;;;-1.84;74.65;100595.12;1745829;82;21022;-59
2023/03/13 04:07:17;;;;;;;8.23;3.22;;;;;;;-1.82;74.59;100598.56;1745217;82;21458;-61
2023/03/13 04:09:46;;;;;;;9.45;3.33;;;;;;;-1.78;74.56;100600.53;1746000;82;20999;-61
2023/03/13 04:12:19;;;;;;;7.28;2.55;;;;;;;-1.73;74.34;100604.59;1744815;82;21524;-60
2023/03/13 04:14:51;;;;;;;5.57;2.00;;;;;;;-1.70;74.06;100603.02;1745826;82;21496;-60
2023/03/13 04:17:21;;;;;;;6.78;1.90;;;;;;;-1.66;73.77;100605.84;1746079;82;21071;-61
2023/03/13 04:19:51;;;;;;;4.62;2.00;;;;;;;-1.61;73.29;100606.84;1745800;82;21558;-60
2023/03/13 04:22:23;;;;;;;4.72;2.25;;;;;;;-1.56;72.98;100615.42;1746043;82;21538;-60
2023/03/13 04:24:55;;;;;;;5.45;2.05;;;;;;;-1.52;72.69;100616.91;1745893;82;21062;-61
2023/03/13 04:27:25;;;;;;;5.15;2.35;;;;;;;-1.48;72.53;100608.12;1745991;82;21026;-61
2023/03/13 04:29:54;;;;;;;7.12;2.25;;;;;;;-1.46;72.45;100608.38;1746033;82;21043;-60
2023/03/13 04:32:28;;;;;;;5.80;2.00;;;;;;;-1.42;72.29;100626.47;1743204;82;21431;-61
2023/03/13 04:35:17;;;;;;;4.78;2.10;;;;;;;-1.40;72.14;100626.73;1746078;82;21015;-60
2023/03/13 04:37:48;;;;;;;6.62;1.87;;;;;;;-1.39;72.14;100622.20;1737586;82;21023;-60
2023/03/13 04:40:25;;;;;;;6.78;2.35;;;;;;;-1.37;72.15;100629.66;1685835;85;21017;-59
2023/03/13 04:43:00;;;;;;;5.50;1.98;;;;;;;-1.39;72.03;100628.44;1683994;85;21052;-59
2023/03/13 04:45:53;;;;;;;5.40;2.20;;;;;;;-1.40;72.08;100632.09;1684236;85;21116;-60
2023/03/13 04:48:24;;;;;;;8.53;2.70;;;;;;;-1.40;72.09;100635.27;1662340;85;21076;-60
2023/03/13 04:50:59;;;;;;;5.28;2.12;;;;;;;-1.38;72.17;100638.70;1682511;85;21077;-59
2023/03/13 04:53:42;;;;;;;5.97;2.40;;;;;;;-1.35;72.30;100640.67;1685746;85;21064;-60
2023/03/13 04:56:26;;;;;;;4.70;2.05;;;;;;;-1.31;72.40;100643.98;1686561;85;21063;-60
2023/03/13 04:59:11;;;;;;;7.30;2.37;;;;;;;-1.26;72.37;100649.91;1686123;85;21083;-60
2023/03/13 05:01:59;;;;;;;6.05;2.15;;;;;;;-1.28;72.31;100654.53;1688370;85;21087;-60
2023/03/13 05:04:34;;;;;;;4.20;1.80;;;;;;;-1.29;72.50;100653.68;1662312;85;21448;-60
2023/03/13 05:07:21;;;;;;;5.53;2.00;;;;;;;-1.26;72.69;100657.11;1687550;85;21156;-60
2023/03/13 05:09:57;;;;;;;7.47;2.52;;;;;;;-1.19;72.81;100661.05;1689268;85;21056;-60
2023/03/13 05:12:40;;;;;;;7.83;2.30;;;;;;;-1.15;72.73;100661.19;1660478;85;21017;-59
2023/03/13 05:15:12;;;;;;;6.17;2.08;;;;;;;-1.11;72.59;100666.70;1690277;85;21064;-60
2023/03/13 05:17:53;;;;;;;7.20;2.20;;;;;;;-1.10;72.44;100659.86;1725396;82;21019;-61
2023/03/13 05:20:44;;;;;;;5.47;2.52;;;;;;;-1.07;72.36;100663.66;1744396;82;21019;-61
2023/03/13 05:23:30;;;;;;;7.00;2.80;;;;;;;-1.05;72.34;100662.20;1742441;82;21047;-60
2023/03/13 05:26:04;;;;;;;5.65;2.40;;;;;;;-1.05;72.26;100668.43;1740936;82;21035;-59
2023/03/13 05:28:39;;;;;;;6.95;2.75;;;;;;;-1.04;72.27;100663.42;1742328;82;21051;-60
2023/03/13 05:31:27;;;;;;;8.23;3.37;;;;;;;-0.99;72.35;100677.86;1743913;82;21007;-58
2023/03/13 05:33:58;;;;;;;8.23;3.00;;;;;;;-0.93;72.45;100684.12;1736826;82;21098;-59
2023/03/13 05:36:39;;;;;;;7.78;2.83;;;;;;;-0.88;72.41;100687.31;1683782;82;21132;-61
2023/03/13 05:39:23;;;;;;;8.80;3.55;;;;;;;-0.83;72.38;100679.75;1647604;87;21500;-61
2023/03/13 05:42:13;;;;;;;8.38;3.40;;;;;;;-0.76;72.34;100690.89;1648185;87;21078;-59
2023/03/13 05:45:04;;;;;;;10.70;4.20;;;;;;;-0.71;72.28;100694.94;1571785;91;21105;-60
2023/03/13 05:47:47;;;;;;;8.73;3.72;;;;;;;-0.67;72.26;100700.94;1572739;91;21093;-61
2023/03/13 05:50:23;;;;;;;8.58;3.77;;;;;;;-0.60;72.32;100698.66;1572726;91;21069;-59
2023/03/13 05:52:55;;;;;;;11.43;4.97;;;;;;;-0.55;72.33;100697.33;1573613;90;21196;-60
2023/03/13 05:55:30;;;;;;;8.03;3.70;;;;;;;-0.48;72.44;100698.56;1577989;91;21101;-61
2023/03/13 05:58:02;;;;;;;9.50;3.70;;;;;;;-0.38;72.41;100707.64;1633331;86;21015;-60
2023/03/13 06:00:34;;;;;;;9.55;3.80;;;;;;;-0.29;72.38;100706.55;1657435;86;21054;-61
2023/03/13 06:03:15;;;;;;;8.60;3.25;;;;;;;-0.20;72.43;100703.12;1654152;86;21086;-61
2023/03/13 06:05:47;;;;;;;9.05;3.40;;;;;;;-0.10;72.31;100707.66;1659513;86;21132;-61
2023/03/13 06:08:24;;;;;;;11.60;3.90;;;;;;;0.03;72.25;100710.75;1658543;86;21097;-61
2023/03/13 06:10:54;;;;;;;8.95;3.42;;;;;;;0.12;72.12;100708.17;1746158;82;20999;-61
2023/03/13 06:13:23;;;;;;;7.17;3.50;;;;;;;0.23;72.00;100705.47;1746701;82;21047;-61
2023/03/13 06:15:57;;;;;;;7.65;2.98;;;;;;;0.32;71.94;100711.95;1746517;82;21058;-61
2023/03/13 06:18:43;;;;;;;6.60;2.80;;;;;;;0.43;71.75;100712.42;1746544;82;21011;-62
2023/03/13 06:21:12;;;;;;;4.62;2.72;;;;;;;0.55;71.73;100712.77;1746538;82;21034;-61
2023/03/13 06:23:43;;;;;;;6.62;3.25;;;;;;;0.67;71.55;100710.94;1746565;82;21075;-62
2023/03/13 06:26:14;;;;;;;6.00;2.90;;;;;;;0.75;71.28;100708.45;1746574;82;21520;-61
2023/03/13 06:28:44;;;;;;;6.53;2.77;;;;;;;0.82;70.89;100718.61;1746289;82;21044;-60
2023/03/13 06:31:13;;;;;;;8.33;2.87;;;;;;;0.86;70.76;100719.21;1746589;82;21023;-59
2023/03/13 06:33:42;;;;;;;10.48;4.30;;;;;;;0.91;70.56;100721.03;1746426;82;21090;-61
2023/03/13 06:36:11;;;;;;;9.83;3.08;;;;;;;0.95;70.44;100720.64;1746669;82;21098;-62
2023/03/13 06:38:40;;;;;;;7.95;2.92;;;;;;;0.99;70.13;100711.80;1746566;82;21174;-61
2023/03/13 06:41:11;;;;;;;6.85;3.20;;;;;;;1.00;70.07;100721.61;1746522;82;21055;-60
2023/03/13 06:43:41;;;;;;;7.20;3.17;;;;;;;1.03;70.17;100725.40;1746255;82;21189;-60
2023/03/13 06:46:19;;;;;;;7.70;3.40;;;;;;;1.07;70.34;100719.25;1746428;82;21070;-61
2023/03/13 06:48:48;;;;;;;6.92;3.30;;;;;;;1.16;70.33;100729.27;1746367;82;21007;-63
2023/03/13 06:51:21;;;;;;;8.00;4.10;;;;;;;1.26;70.09;100732.91;1746283;82;21055;-62
2023/03/13 06:53:51;;;;;;;6.67;3.45;;;;;;;1.35;70.02;100741.61;1747613;82;21043;-61
2023/03/13 06:56:21;;;;;;;9.40;4.55;;;;;;;1.47;69.92;100751.36;1748684;82;21046;-61
2023/03/13 06:58:52;;;;;;;9.33;4.10;;;;;;;1.58;69.83;100747.25;1748596;81;21046;-60
2023/03/13 07:01:22;;;;;;;7.87;3.42;;;;;;;1.70;69.70;100753.44;1748752;81;21020;-59
2023/03/13 07:03:51;;;;;;;7.83;4.20;;;;;;;1.78;69.36;100752.28;1748474;82;21471;-59
2023/03/13 07:06:20;;;;;;;10.10;3.20;;;;;;;1.86;69.08;100745.71;1748981;82;21062;-60
2023/03/13 07:08:49;;;;;;;5.90;2.90;;;;;;;1.94;68.82;100753.64;1748513;82;21062;-61
2023/03/13 07:11:21;;;;;;;7.15;3.20;;;;;;;2.01;68.69;100751.66;1748564;82;21039;-61
2023/03/13 07:13:56;;;;;;;7.85;3.00;;;;;;;2.10;68.44;100754.05;1748680;82;21030;-61
2023/03/13 07:16:27;;;;;;;11.03;3.60;;;;;;;2.14;68.21;100755.00;1744635;82;21047;-62
2023/03/13 07:19:01;;;;;;;7.05;3.50;;;;;;;2.18;68.00;100754.23;1748674;82;21362;-62
2023/03/13 07:21:31;;;;;;;10.18;3.50;;;;;;;2.23;68.01;100758.23;1748709;82;21050;-61
2023/03/13 07:24:01;;;;;;;7.28;3.40;;;;;;;2.32;68.24;100751.66;1748777;82;21110;-62
2023/03/13 07:26:31;;;;;;;6.20;2.80;;;;;;;2.40;68.34;100746.42;1748886;82;21030;-61
2023/03/13 07:29:00;;;;;;;9.38;3.52;;;;;;;2.50;67.52;100746.81;1748631;82;21051;-61
2023/03/13 07:31:32;;;;;;;9.58;3.15;;;;;;;2.57;67.38;100745.77;1748653;82;21430;-62
2023/03/13 07:34:02;;;;;;;8.48;3.40;;;;;;;2.64;67.52;100750.16;1748786;82;21046;-61
2023/03/13 07:36:34;;;;;;;9.65;3.40;;;;;;;2.70;67.53;100750.46;1748500;82;21014;-60
2023/03/13 07:39:05;;;;;;;6.97;2.90;;;;;;;2.72;67.19;100750.32;1749009;82;21505;-62
2023/03/13 07:41:33;;;;;;;6.78;3.83;;;;;;;2.75;67.00;100753.61;1748667;82;21105;-63
2023/03/13 07:44:02;;;;;;;7.33;3.27;;;;;;;2.75;66.18;100756.31;1748687;82;21431;-62
2023/03/13 07:46:31;;;;;;;8.03;3.22;;;;;;;2.77;66.26;100757.03;1748909;82;21055;-62
2023/03/13 07:49:02;;;;;;;7.95;3.72;;;;;;;2.81;66.09;100749.48;1748987;82;21098;-62
2023/03/13 07:51:33;;;;;;;7.78;3.75;;;;;;;2.86;66.25;100744.02;1748857;82;21427;-62
2023/03/13 07:54:05;;;;;;;6.75;3.42;;;;;;;2.94;66.80;100737.05;1746058;82;21046;-63
2023/03/13 07:56:34;;;;;;;9.38;4.15;;;;;;;3.02;66.45;100742.61;1746081;82;21043;-62
2023/03/13 07:59:03;;;;;;;7.30;3.90;;;;;;;3.10;66.66;100742.27;1745894;82;20999;-61
2023/03/13 08:01:34;;;;;;;7.28;3.58;;;;;;;3.21;66.73;100743.13;1746131;82;21492;-62
2023/03/13 08:04:04;;;;;;;8.08;3.58;;;;;;;3.31;66.25;100746.22;1745870;82;21019;-62
2023/03/13 08:06:35;;;;;;;7.17;3.42;;;;;;;3.38;65.59;100740.59;1745837;82;21039;-62
2023/03/13 08:09:06;;;;;;;8.85;3.65;;;;;;;3.44;65.41;100737.80;1746025;82;21051;-63
2023/03/13 08:11:35;;;;;;;7.85;3.70;;;;;;;3.49;64.76;100730.95;1745895;82;21516;-61
2023/03/13 08:14:07;;;;;;;6.97;3.27;;;;;;;3.56;64.19;100735.80;1745827;82;21069;-63
2023/03/13 08:16:37;;;;;;;7.37;3.60;;;;;;;3.64;64.18;100735.93;1717785;82;21451;-62
2023/03/13 08:19:07;;;;;;;7.65;3.40;;;;;;;3.71;63.28;100739.77;1746124;82;21019;-63
2023/03/13 08:21:38;;;;;;;11.33;7.00;;;;;;;3.76;62.85;100744.25;1745841;82;21047;-61
2023/03/13 08:24:09;;;;;;;7.75;4.10;;;;;;;3.79;62.87;100740.75;1745799;82;21019;-61
2023/03/13 08:26:40;;;;;;;6.05;3.10;;;;;;;3.85;62.89;100753.36;1717017;82;21435;-60
2023/03/13 08:29:12;;;;;;;12.58;3.62;;;;;;;3.90;61.95;100751.06;1745809;82;21002;-60
2023/03/13 08:31:47;;;;;;;7.92;3.08;;;;;;;3.93;61.50;100760.30;1746046;82;21038;-59
2023/03/13 08:34:17;;;;;;;10.72;3.17;;;;;;;3.97;60.87;100754.94;1745846;82;21039;-60
2023/03/13 08:36:46;;;;;;;8.15;3.08;;;;;;;3.98;60.76;100752.08;1745953;82;21493;-60
2023/03/13 08:39:18;;;;;;;15.48;3.92;;;;;;;4.01;60.53;100755.84;1745795;82;21035;-60
2023/03/13 08:41:47;;;;;;;9.08;3.50;;;;;;;4.06;60.59;100748.63;1746076;82;21112;-61
2023/03/13 08:44:19;;;;;;;7.25;3.35;;;;;;;4.14;60.62;100758.23;1745774;82;21031;-60
2023/03/13 08:46:48;;;;;;;9.00;3.30;;;;;;;4.22;60.39;100758.86;1745840;82;21027;-61
2023/03/13 08:49:18;;;;;;;8.95;4.22;;;;;;;4.30;59.58;100752.19;1745800;82;21019;-62
2023/03/13 08:51:49;;;;;;;7.03;3.22;;;;;;;4.34;59.28;100754.45;1649278;87;21058;-62
2023/03/13 08:54:18;;;;;;;7.85;3.40;;;;;;;4.40;59.24;100757.92;1617125;87;21071;-62
2023/03/13 08:56:48;;;;;;;5.92;3.35;;;;;;;4.47;59.00;100759.53;1590814;90;21107;-62
2023/03/13 08:59:18;;;;;;;5.87;3.55;;;;;;;4.52;58.06;100745.02;1651163;87;21074;-62
2023/03/13 09:01:48;;;;;;;37.28;6.85;;;;;;;4.54;58.78;100747.58;1616242;88;21086;-63
2023/03/13 09:04:17;;;;;;;11.53;3.25;;;;;;;4.58;58.95;100737.66;1636622;88;21088;-63
2023/03/13 09:06:46;;;;;;;5.55;3.02;;;;;;;4.64;58.07;100740.27;1636391;88;21074;-62
2023/03/13 09:09:17;;;;;;;12.65;3.42;;;;;;;4.66;57.27;100737.77;1648711;84;21493;-61
2023/03/13 09:11:48;;;;;;;9.83;3.10;;;;;;;4.67;57.57;100735.91;1746356;82;21465;-62
2023/03/13 09:14:20;;;;;;;12.78;3.47;;;;;;;4.69;57.15;100735.25;1745695;82;21424;-63
2023/03/13 09:16:51;;;;;;;14.13;3.60;;;;;;;4.71;57.35;100736.80;1745724;82;21033;-63
2023/03/13 09:19:21;;;;;;;10.70;3.62;;;;;;;4.74;57.57;100732.43;1745653;82;21068;-63
2023/03/13 09:21:51;;;;;;;6.90;3.05;;;;;;;4.80;57.83;100735.55;1745762;82;21176;-63
2023/03/13 09:24:20;;;;;;;30.62;6.22;;;;;;;4.82;55.98;100728.09;1745548;82;21025;-63
2023/03/13 09:26:50;;;;;;;7.30;3.40;;;;;;;4.84;56.31;100726.08;1745439;82;21076;-62
2023/03/13 09:29:20;;;;;;;8.33;3.62;;;;;;;4.87;56.00;100725.78;1744119;82;21060;-62
2023/03/13 09:31:49;;;;;;;16.82;3.62;;;;;;;4.90;55.92;100736.33;1745731;82;21060;-62
2023/03/13 09:34:19;;;;;;;6.35;3.08;;;;;;;4.92;55.45;100729.73;1745583;82;21057;-64
2023/03/13 09:36:48;;;;;;;7.47;2.77;;;;;;;4.96;55.52;100724.36;1745682;82;21019;-62
2023/03/13 09:39:18;;;;;;;8.40;3.42;;;;;;;4.99;55.25;100724.55;1745553;82;21032;-61
2023/03/13 09:41:56;;;;;;;7.58;3.20;;;;;;;5.02;55.38;100725.60;1745567;82;21056;-61
2023/03/13 09:44:32;;;;;;;5.72;3.10;;;;;;;5.04;55.01;100724.44;1745669;82;21105;-60
2023/03/13 09:47:07;;;;;;;14.53;3.05;;;;;;;5.07;55.11;100719.20;1716802;82;21488;-60
2023/03/13 09:49:42;;;;;;;6.72;3.08;;;;;;;5.15;55.16;100726.58;1745678;81;21032;-60
2023/03/13 09:52:20;;;;;;;7.53;2.72;;;;;;;5.22;54.64;100723.62;1745955;82;21028;-61
2023/03/13 09:55:03;;;;;;;20.85;3.50;;;;;;;5.27;54.42;100720.78;1745590;82;21083;-61
2023/03/13 09:57:52;;;;;;;6.03;2.65;;;;;;;5.31;54.07;100716.75;1745812;82;21012;-60
2023/03/13 10:00:32;;;;;;;10.38;3.08;;;;;;;5.34;53.02;100713.72;1742038;81;21101;-61
2023/03/13 10:03:13;;;;;;;7.83;2.85;;;;;;;5.39;53.21;100710.03;1716087;83;21030;-62
2023/03/13 10:05:50;;;;;;;9.63;3.40;;;;;;;5.49;53.56;100702.29;1716293;83;21090;-62
2023/03/13 10:08:22;;;;;;;;;;;;;;;5.55;53.52;100699.80;1729359;83;21049;-63
2023/03/13 10:11:17;;;;;;;5.20;2.52;;;;;;;5.61;53.52;100700.52;1725680;83;20195;-63
2023/03/13 10:13:54;;;;;;;15.03;3.62;;;;;;;5.65;53.53;100697.83;1726698;83;21066;-63
2023/03/13 10:16:57;;;;;;;8.15;3.05;;;;;;;5.73;53.49;100691.09;1715011;83;21015;-63
2023/03/13 10:19:41;;;;;;;9.68;3.15;;;;;;;5.83;53.58;100688.27;1730186;83;21029;-63
2023/03/13 10:22:18;;;;;;;7.67;3.10;;;;;;;5.88;52.81;100679.16;1636511;87;21493;-61
2023/03/13 10:25:08;;;;;;;7.47;2.65;;;;;;;5.95;52.84;100692.48;1637211;87;21054;-61
2023/03/13 10:27:50;;;;;;;8.53;3.62;;;;;;;5.98;52.33;100681.80;1636354;88;21559;-61
2023/03/13 10:30:31;;;;;;;6.33;2.55;;;;;;;5.96;51.88;100683.82;1616244;88;21054;-61
2023/03/13 10:33:13;;;;;;;10.68;3.10;;;;;;;5.93;52.43;100663.24;1636530;87;21446;-64
2023/03/13 10:35:43;;;;;;;8.43;2.83;;;;;;;5.95;52.81;100670.73;1633786;88;21089;-63
2023/03/13 10:38:20;;;;;;;7.40;2.95;;;;;;;5.95;52.65;100662.58;1636154;86;21074;-63
2023/03/13 10:40:59;;;;;;;9.83;3.10;;;;;;;6.00;52.62;100659.37;1674291;83;21133;-62
2023/03/13 10:43:30;;;;;;;5.92;3.00;;;;;;;6.01;52.81;100652.41;1730031;83;21054;-62
2023/03/13 10:46:00;;;;;;;6.62;2.62;;;;;;;6.03;52.58;100644.08;1729906;83;21053;-63
2023/03/13 10:48:32;;;;;;;7.80;2.90;;;;;;;6.05;52.17;100648.86;1730234;83;21089;-63
2023/03/13 10:51:02;;;;;;;12.65;2.80;;;;;;;6.10;52.12;100641.06;1700469;83;21081;-62
2023/03/13 10:53:35;;;;;;;10.90;3.30;;;;;;;6.16;52.46;100638.19;1730048;83;21054;-63
2023/03/13 10:56:13;;;;;;;7.12;3.00;;;;;;;6.27;52.90;100648.27;1719896;82;21061;-62
2023/03/13 10:58:51;;;;;;;9.40;2.60;;;;;;;6.37;52.30;100644.05;1746574;82;21033;-64
2023/03/13 11:01:27;;;;;;;;;;;;;;;6.45;51.86;100640.51;1749041;82;21081;-64
2023/03/13 11:04:03;;;;;;;6.72;2.45;;;;;;;6.49;51.24;100635.93;1746544;82;20217;-63
2023/03/13 11:06:34;;;;;;;14.25;3.15;;;;;;;6.55;50.79;100628.49;1746542;82;20998;-62
2023/03/13 11:09:16;;;;;;;7.58;3.10;;;;;;;6.56;50.65;100627.98;1746391;81;21066;-62
2023/03/13 11:11:49;;;;;;;7.83;2.60;;;;;;;6.57;50.46;100610.63;1746806;82;20955;-62
2023/03/13 11:14:24;;;;;;;6.08;2.80;;;;;;;6.57;51.48;100611.48;1746431;82;21382;-61
2023/03/13 11:17:01;;;;;;;8.78;2.58;;;;;;;6.60;51.82;100604.34;1746512;82;21101;-62
2023/03/13 11:20:22;;;;;;;10.32;3.00;;;;;;;6.63;51.85;100592.27;1746429;82;20994;-63
2023/03/13 11:23:22;;;;;;;8.48;3.00;;;;;;;6.67;50.80;100594.48;1722295;82;21018;-63
2023/03/13 11:26:26;;;;;;;10.85;3.12;;;;;;;6.70;51.12;100589.72;1746522;82;21069;-63
2023/03/13 11:29:02;;;;;;;10.75;4.17;;;;;;;6.78;51.79;100584.28;1746328;82;21456;-62
2023/03/13 11:31:44;;;;;;;10.48;3.00;;;;;;;6.81;51.30;100579.35;1746254;82;21037;-62
2023/03/13 11:34:52;;;;;;;9.45;3.25;;;;;;;6.78;51.89;100572.89;1746456;82;20994;-63
2023/03/13 11:37:23;;;;;;;8.80;3.45;;;;;;;6.77;51.78;100574.41;1745884;82;21080;-63
2023/03/13 11:40:07;;;;;;;6.97;3.40;;;;;;;6.74;52.00;100570.67;1746641;82;21020;-61
2023/03/13 11:43:03;;;;;;;13.62;3.30;;;;;;;6.71;52.61;100575.94;1746289;82;21068;-61
2023/03/13 11:45:55;;;;;;;6.60;2.85;;;;;;;6.73;53.05;100572.54;1742678;82;21425;-63
2023/03/13 11:48:33;;;;;;;12.33;3.52;;;;;;;6.79;52.12;100561.48;1746315;82;21040;-63
2023/03/13 11:51:27;;;;;;;6.50;2.50;;;;;;;6.87;51.11;100571.87;1746474;82;21036;-62
2023/03/13 11:54:29;;;;;;;9.15;2.92;;;;;;;6.96;50.65;100559.95;1746396;82;21056;-63
2023/03/13 11:57:12;;;;;;;10.78;3.60;;;;;;;7.02;50.16;100570.67;1745578;82;21036;-62
2023/03/13 12:00:26;;;;;;;11.75;3.50;;;;;;;7.05;48.57;100558.08;1744240;82;21053;-62
2023/03/13 12:03:07;;;;;;;5.17;2.55;;;;;;;7.06;47.99;100563.02;1745806;82;21428;-63